Ship Status Report: callsign ZJL8786

sailwx.info

Track history (hours):
 
Tides and Currents Weather Stations Pressure Air Temp Water Temp Dewpoint Dewpoint Depression Visibility Wind Speed Wind Dir Waves Ship Positions

Callsign ZJL8786 (name unknown)

Last reported at 2018-Feb-24 22:01 UTC. Time now 2018-Feb-24 22:16 UTC.
Position N 25°45' W 080°10'.

Length 27 m; draft 2.2 m.

Type: Pleasure craft. MMSI: 378111979.

Date/timePositionNaut miles runAvg speedWind from/ knotsBaromVisibWave heightAir tempDewpointWater temp
2018-Feb-24 22:01N 25°45' W 080°10'0 0.0
2018-Feb-24 21:31N 25°45' W 080°10'0 0.0
2018-Feb-24 21:01N 25°45' W 080°10'3 1.4
2018-Feb-24 18:30N 25°42' W 080°11'0 0.0
2018-Feb-24 17:59N 25°42' W 080°11'12 0.7
2018-Feb-24 00:30N 25°53' W 080°08'0 0.1
2018-Feb-23 23:30N 25°54' W 080°08'3 6.7
2018-Feb-23 23:00N 25°51' W 080°10'4 7.1
2018-Feb-23 22:30N 25°47' W 080°11'2 4.3
2018-Feb-23 22:00N 25°45' W 080°11'1 1.4
2018-Feb-23 21:30N 25°44' W 080°11'0 0.0
2018-Feb-23 21:00N 25°44' W 080°11'0 0.0
2018-Feb-23 20:29N 25°44' W 080°11'0 0.0
2018-Feb-23 19:59N 25°44' W 080°11'0 0.0
2018-Feb-23 19:30N 25°44' W 080°11'0 0.4
2018-Feb-23 19:00N 25°44' W 080°11'3 6.4
2018-Feb-23 18:30N 25°48' W 080°11'4 6.9
2018-Feb-23 17:59N 25°51' W 080°10'3 2.8
2018-Feb-23 17:00N 25°53' W 080°08'7 1.7
2018-Feb-23 13:00N 25°47' W 080°11'0 0.0
2018-Feb-23 12:29N 25°47' W 080°11'0 0.0
2018-Feb-23 11:55N 25°47' W 080°11'0 0.0
2018-Feb-23 11:26N 25°47' W 080°11'0 0.0
2018-Feb-23 11:00N 25°47' W 080°11'0 0.0
2018-Feb-23 10:30N 25°47' W 080°11'0 0.0
2018-Feb-23 09:59N 25°47' W 080°11'0 0.0
2018-Feb-23 09:29N 25°47' W 080°11'0 0.0
2018-Feb-23 08:56N 25°47' W 080°11'0 0.0
2018-Feb-23 08:28N 25°47' W 080°11'0 0.0
2018-Feb-23 08:00N 25°47' W 080°11'0 0.0
2018-Feb-23 07:29N 25°47' W 080°11'0 0.0
2018-Feb-23 07:00N 25°47' W 080°11'0 0.0
2018-Feb-23 06:30N 25°47' W 080°11'0 0.0
2018-Feb-23 06:00N 25°47' W 080°11'0 0.0
2018-Feb-23 05:30N 25°47' W 080°11'0 0.0
2018-Feb-23 05:00N 25°47' W 080°11'0 0.0
2018-Feb-23 04:25N 25°47' W 080°11'0 0.0
2018-Feb-23 04:00N 25°47' W 080°11'0 0.0
2018-Feb-23 03:25N 25°47' W 080°11'0 0.0
2018-Feb-23 03:00N 25°47' W 080°11'0 0.0
2018-Feb-23 02:30N 25°47' W 080°11'0 0.0
2018-Feb-23 02:00N 25°47' W 080°11'0 0.0
2018-Feb-23 00:00N 25°47' W 080°11'0 0.0
2018-Feb-22 23:29N 25°47' W 080°11'1 1.0
2018-Feb-22 22:00N 25°46' W 080°12'0 0.2
2018-Feb-22 19:59N 25°46' W 080°11'2 1.2
2018-Feb-22 18:30N 25°44' W 080°11'2 1.3
2018-Feb-22 17:00N 25°46' W 080°11'1 0.3
2018-Feb-22 13:55N 25°47' W 080°11'0 0.0
2018-Feb-22 13:29N 25°47' W 080°11'0 0.0
2018-Feb-22 13:00N 25°47' W 080°11'0 0.1
2018-Feb-22 12:29N 25°47' W 080°11'0 0.1
2018-Feb-22 11:58N 25°47' W 080°11'0 0.0
2018-Feb-22 11:30N 25°47' W 080°11'0 0.0
2018-Feb-22 11:00N 25°47' W 080°11'0 0.0
2018-Feb-22 10:29N 25°47' W 080°11'0 0.0
2018-Feb-22 10:00N 25°47' W 080°11'0 0.0
2018-Feb-22 09:25N 25°47' W 080°11'0 0.0
2018-Feb-22 08:59N 25°47' W 080°11'0 0.0
2018-Feb-22 08:25N 25°47' W 080°11'0 0.0
2018-Feb-22 08:00N 25°47' W 080°11'0 0.0
2018-Feb-22 07:29N 25°47' W 080°11'0 0.0
2018-Feb-22 07:00N 25°47' W 080°11'0 0.0
2018-Feb-22 06:27N 25°47' W 080°11'0 0.0
2018-Feb-22 06:00N 25°47' W 080°11'0 0.0
2018-Feb-22 05:30N 25°47' W 080°11'0 0.0
2018-Feb-22 05:00N 25°47' W 080°11'0 0.0
2018-Feb-22 04:27N 25°47' W 080°11'0 0.0
2018-Feb-22 04:00N 25°47' W 080°11'0 0.0
2018-Feb-22 03:27N 25°47' W 080°11'0 0.0
2018-Feb-22 03:00N 25°47' W 080°11'0 0.0
2018-Feb-22 02:28N 25°47' W 080°11'0 0.0
2018-Feb-22 02:00N 25°47' W 080°11'0 0.0
2018-Feb-22 01:30N 25°47' W 080°11'0 0.0
2018-Feb-22 01:00N 25°47' W 080°11'0 0.0
2018-Feb-22 00:29N 25°47' W 080°11'0 0.0
2018-Feb-22 00:00N 25°47' W 080°11'0 0.0
2018-Feb-21 23:29N 25°47' W 080°11'0 0.0
2018-Feb-21 23:00N 25°47' W 080°11'0 0.0
2018-Feb-21 22:30N 25°47' W 080°11'0 0.0
2018-Feb-21 21:59N 25°47' W 080°11'0 0.0
2018-Feb-21 21:27N 25°47' W 080°11'0 0.0
2018-Feb-21 20:55N 25°47' W 080°11'0 0.0
2018-Feb-21 20:28N 25°47' W 080°11'0 0.0
2018-Feb-21 20:00N 25°47' W 080°11'0 0.0
2018-Feb-21 19:31N 25°47' W 080°11'0 0.0
2018-Feb-21 19:00N 25°47' W 080°11'0 0.0
2018-Feb-21 18:30N 25°47' W 080°11'0 0.0
2018-Feb-21 18:00N 25°47' W 080°11'0 0.0
2018-Feb-21 15:28N 25°47' W 080°11'  
Track history (hours):
 
Tides and Currents Weather Stations Pressure Air Temp Water Temp Dewpoint Dewpoint Depression Visibility Wind Speed Wind Dir Waves Ship Positions

Callsign ZJL8786 (name unknown)

Last reported at 2018-Feb-24 22:01 UTC. Time now 2018-Feb-24 22:16 UTC.
Position N 25°45' W 080°10'.

Length 27 m; draft 2.2 m.

Type: Pleasure craft. MMSI: 378111979.

Date/timePositionNaut miles runAvg speedWind from/ knotsBaromVisibWave heightAir tempDewpointWater temp
2018-Feb-24 22:01N 25°45' W 080°10'0 0.0
2018-Feb-24 21:31N 25°45' W 080°10'0 0.0
2018-Feb-24 21:01N 25°45' W 080°10'3 1.4
2018-Feb-24 18:30N 25°42' W 080°11'0 0.0
2018-Feb-24 17:59N 25°42' W 080°11'12 0.7
2018-Feb-24 00:30N 25°53' W 080°08'0 0.1
2018-Feb-23 23:30N 25°54' W 080°08'3 6.7
2018-Feb-23 23:00N 25°51' W 080°10'4 7.1
2018-Feb-23 22:30N 25°47' W 080°11'2 4.3
2018-Feb-23 22:00N 25°45' W 080°11'1 1.4
2018-Feb-23 21:30N 25°44' W 080°11'0 0.0
2018-Feb-23 21:00N 25°44' W 080°11'0 0.0
2018-Feb-23 20:29N 25°44' W 080°11'0 0.0
2018-Feb-23 19:59N 25°44' W 080°11'0 0.0
2018-Feb-23 19:30N 25°44' W 080°11'0 0.4
2018-Feb-23 19:00N 25°44' W 080°11'3 6.4
2018-Feb-23 18:30N 25°48' W 080°11'4 6.9
2018-Feb-23 17:59N 25°51' W 080°10'3 2.8
2018-Feb-23 17:00N 25°53' W 080°08'7 1.7
2018-Feb-23 13:00N 25°47' W 080°11'0 0.0
2018-Feb-23 12:29N 25°47' W 080°11'0 0.0
2018-Feb-23 11:55N 25°47' W 080°11'0 0.0
2018-Feb-23 11:26N 25°47' W 080°11'0 0.0
2018-Feb-23 11:00N 25°47' W 080°11'0 0.0
2018-Feb-23 10:30N 25°47' W 080°11'0 0.0
2018-Feb-23 09:59N 25°47' W 080°11'0 0.0
2018-Feb-23 09:29N 25°47' W 080°11'0 0.0
2018-Feb-23 08:56N 25°47' W 080°11'0 0.0
2018-Feb-23 08:28N 25°47' W 080°11'0 0.0
2018-Feb-23 08:00N 25°47' W 080°11'0 0.0
2018-Feb-23 07:29N 25°47' W 080°11'0 0.0
2018-Feb-23 07:00N 25°47' W 080°11'0 0.0
2018-Feb-23 06:30N 25°47' W 080°11'0 0.0
2018-Feb-23 06:00N 25°47' W 080°11'0 0.0
2018-Feb-23 05:30N 25°47' W 080°11'0 0.0
2018-Feb-23 05:00N 25°47' W 080°11'0 0.0
2018-Feb-23 04:25N 25°47' W 080°11'0 0.0
2018-Feb-23 04:00N 25°47' W 080°11'0 0.0
2018-Feb-23 03:25N 25°47' W 080°11'0 0.0
2018-Feb-23 03:00N 25°47' W 080°11'0 0.0
2018-Feb-23 02:30N 25°47' W 080°11'0 0.0
2018-Feb-23 02:00N 25°47' W 080°11'0 0.0
2018-Feb-23 00:00N 25°47' W 080°11'0 0.0
2018-Feb-22 23:29N 25°47' W 080°11'1 1.0
2018-Feb-22 22:00N 25°46' W 080°12'0 0.2
2018-Feb-22 19:59N 25°46' W 080°11'2 1.2
2018-Feb-22 18:30N 25°44' W 080°11'2 1.3
2018-Feb-22 17:00N 25°46' W 080°11'1 0.3
2018-Feb-22 13:55N 25°47' W 080°11'0 0.0
2018-Feb-22 13:29N 25°47' W 080°11'0 0.0
2018-Feb-22 13:00N 25°47' W 080°11'0 0.1
2018-Feb-22 12:29N 25°47' W 080°11'0 0.1
2018-Feb-22 11:58N 25°47' W 080°11'0 0.0
2018-Feb-22 11:30N 25°47' W 080°11'0 0.0
2018-Feb-22 11:00N 25°47' W 080°11'0 0.0
2018-Feb-22 10:29N 25°47' W 080°11'0 0.0
2018-Feb-22 10:00N 25°47' W 080°11'0 0.0
2018-Feb-22 09:25N 25°47' W 080°11'0 0.0
2018-Feb-22 08:59N 25°47' W 080°11'0 0.0
2018-Feb-22 08:25N 25°47' W 080°11'0 0.0
2018-Feb-22 08:00N 25°47' W 080°11'0 0.0
2018-Feb-22 07:29N 25°47' W 080°11'0 0.0
2018-Feb-22 07:00N 25°47' W 080°11'0 0.0
2018-Feb-22 06:27N 25°47' W 080°11'0 0.0
2018-Feb-22 06:00N 25°47' W 080°11'0 0.0
2018-Feb-22 05:30N 25°47' W 080°11'0 0.0
2018-Feb-22 05:00N 25°47' W 080°11'0 0.0
2018-Feb-22 04:27N 25°47' W 080°11'0 0.0
2018-Feb-22 04:00N 25°47' W 080°11'0 0.0
2018-Feb-22 03:27N 25°47' W 080°11'0 0.0
2018-Feb-22 03:00N 25°47' W 080°11'0 0.0
2018-Feb-22 02:28N 25°47' W 080°11'0 0.0
2018-Feb-22 02:00N 25°47' W 080°11'0 0.0
2018-Feb-22 01:30N 25°47' W 080°11'0 0.0
2018-Feb-22 01:00N 25°47' W 080°11'0 0.0
2018-Feb-22 00:29N 25°47' W 080°11'0 0.0
2018-Feb-22 00:00N 25°47' W 080°11'0 0.0
2018-Feb-21 23:29N 25°47' W 080°11'0 0.0
2018-Feb-21 23:00N 25°47' W 080°11'0 0.0
2018-Feb-21 22:30N 25°47' W 080°11'0 0.0
2018-Feb-21 21:59N 25°47' W 080°11'0 0.0
2018-Feb-21 21:27N 25°47' W 080°11'0 0.0
2018-Feb-21 20:55N 25°47' W 080°11'0 0.0
2018-Feb-21 20:28N 25°47' W 080°11'0 0.0
2018-Feb-21 20:00N 25°47' W 080°11'0 0.0
2018-Feb-21 19:31N 25°47' W 080°11'0 0.0
2018-Feb-21 19:00N 25°47' W 080°11'0 0.0
2018-Feb-21 18:30N 25°47' W 080°11'0 0.0
2018-Feb-21 18:00N 25°47' W 080°11'0 0.0
2018-Feb-21 15:28N 25°47' W 080°11'  

Dump ship's entire track history